sensor_id;sensor_type;location;lat;lon;timestamp;P1;durP1;ratioP1;P2;durP2;ratioP2
78871;SDS011;68247;43.514;1.502;2024-03-06T00:02:09;9.35;;;2.65;;
78871;SDS011;68247;43.514;1.502;2024-03-06T00:04:35;14.23;;;3.13;;
78871;SDS011;68247;43.514;1.502;2024-03-06T00:07:00;14.50;;;3.13;;
78871;SDS011;68247;43.514;1.502;2024-03-06T00:09:26;13.38;;;3.42;;
78871;SDS011;68247;43.514;1.502;2024-03-06T00:11:52;17.38;;;3.22;;
78871;SDS011;68247;43.514;1.502;2024-03-06T00:14:18;13.60;;;3.42;;
78871;SDS011;68247;43.514;1.502;2024-03-06T00:16:44;11.65;;;3.38;;
78871;SDS011;68247;43.514;1.502;2024-03-06T00:19:10;10.27;;;2.58;;
78871;SDS011;68247;43.514;1.502;2024-03-06T00:21:36;8.13;;;2.65;;
78871;SDS011;68247;43.514;1.502;2024-03-06T00:24:01;12.07;;;2.67;;
78871;SDS011;68247;43.514;1.502;2024-03-06T00:26:28;10.07;;;3.13;;
78871;SDS011;68247;43.514;1.502;2024-03-06T00:28:54;9.10;;;3.03;;
78871;SDS011;68247;43.514;1.502;2024-03-06T00:31:19;8.65;;;2.72;;
78871;SDS011;68247;43.514;1.502;2024-03-06T00:33:45;13.35;;;3.38;;
78871;SDS011;68247;43.514;1.502;2024-03-06T00:36:10;10.07;;;3.27;;
78871;SDS011;68247;43.514;1.502;2024-03-06T00:38:35;7.80;;;2.27;;
78871;SDS011;68247;43.514;1.502;2024-03-06T00:41:01;9.63;;;2.27;;
78871;SDS011;68247;43.514;1.502;2024-03-06T00:43:26;7.37;;;2.30;;
78871;SDS011;68247;43.514;1.502;2024-03-06T00:45:52;7.85;;;2.38;;
78871;SDS011;68247;43.514;1.502;2024-03-06T00:48:17;12.13;;;2.33;;
78871;SDS011;68247;43.514;1.502;2024-03-06T00:50:45;7.15;;;2.63;;
78871;SDS011;68247;43.514;1.502;2024-03-06T00:53:10;6.33;;;2.00;;
78871;SDS011;68247;43.514;1.502;2024-03-06T00:55:36;5.87;;;1.90;;
78871;SDS011;68247;43.514;1.502;2024-03-06T00:58:01;7.07;;;2.25;;
78871;SDS011;68247;43.514;1.502;2024-03-06T01:00:27;4.33;;;1.70;;
78871;SDS011;68247;43.514;1.502;2024-03-06T01:02:52;5.00;;;1.95;;
78871;SDS011;68247;43.514;1.502;2024-03-06T01:05:18;9.00;;;2.20;;
78871;SDS011;68247;43.514;1.502;2024-03-06T01:07:43;10.90;;;2.00;;
78871;SDS011;68247;43.514;1.502;2024-03-06T01:10:09;7.10;;;1.87;;
78871;SDS011;68247;43.514;1.502;2024-03-06T01:12:34;7.03;;;2.00;;
78871;SDS011;68247;43.514;1.502;2024-03-06T01:15:00;10.07;;;2.38;;
78871;SDS011;68247;43.514;1.502;2024-03-06T01:17:25;7.90;;;2.03;;
78871;SDS011;68247;43.514;1.502;2024-03-06T01:19:51;9.20;;;2.30;;
78871;SDS011;68247;43.514;1.502;2024-03-06T01:22:17;8.73;;;2.20;;
78871;SDS011;68247;43.514;1.502;2024-03-06T01:24:43;6.35;;;1.70;;
78871;SDS011;68247;43.514;1.502;2024-03-06T01:27:08;4.93;;;1.73;;
78871;SDS011;68247;43.514;1.502;2024-03-06T01:29:34;6.18;;;1.65;;
78871;SDS011;68247;43.514;1.502;2024-03-06T01:31:59;5.90;;;1.70;;
78871;SDS011;68247;43.514;1.502;2024-03-06T01:34:25;4.70;;;1.30;;
78871;SDS011;68247;43.514;1.502;2024-03-06T01:36:51;4.90;;;1.43;;
78871;SDS011;68247;43.514;1.502;2024-03-06T01:39:17;6.97;;;1.80;;
78871;SDS011;68247;43.514;1.502;2024-03-06T01:41:46;6.77;;;1.90;;
78871;SDS011;68247;43.514;1.502;2024-03-06T01:44:12;7.07;;;1.60;;
78871;SDS011;68247;43.514;1.502;2024-03-06T01:46:42;6.63;;;1.40;;
78871;SDS011;68247;43.514;1.502;2024-03-06T01:49:08;4.88;;;1.50;;
78871;SDS011;68247;43.514;1.502;2024-03-06T01:51:34;5.45;;;1.60;;
78871;SDS011;68247;43.514;1.502;2024-03-06T01:54:00;5.93;;;1.50;;
78871;SDS011;68247;43.514;1.502;2024-03-06T01:56:29;7.90;;;1.70;;
78871;SDS011;68247;43.514;1.502;2024-03-06T01:58:55;4.72;;;1.50;;
78871;SDS011;68247;43.514;1.502;2024-03-06T02:01:21;4.03;;;1.63;;
78871;SDS011;68247;43.514;1.502;2024-03-06T02:03:46;6.60;;;1.98;;
78871;SDS011;68247;43.514;1.502;2024-03-06T02:06:12;6.45;;;2.10;;
78871;SDS011;68247;43.514;1.502;2024-03-06T02:08:40;5.38;;;2.63;;
78871;SDS011;68247;43.514;1.502;2024-03-06T02:11:06;4.47;;;1.63;;
78871;SDS011;68247;43.514;1.502;2024-03-06T02:13:32;3.22;;;1.50;;
78871;SDS011;68247;43.514;1.502;2024-03-06T02:15:58;5.68;;;1.80;;
78871;SDS011;68247;43.514;1.502;2024-03-06T02:18:24;4.57;;;1.58;;
78871;SDS011;68247;43.514;1.502;2024-03-06T02:20:49;4.23;;;1.50;;
78871;SDS011;68247;43.514;1.502;2024-03-06T02:23:15;8.88;;;1.60;;
78871;SDS011;68247;43.514;1.502;2024-03-06T02:25:43;5.50;;;1.55;;
78871;SDS011;68247;43.514;1.502;2024-03-06T02:28:11;5.65;;;1.75;;
78871;SDS011;68247;43.514;1.502;2024-03-06T02:30:36;4.77;;;1.80;;
78871;SDS011;68247;43.514;1.502;2024-03-06T02:33:02;5.70;;;1.80;;
78871;SDS011;68247;43.514;1.502;2024-03-06T02:35:29;6.22;;;1.90;;
78871;SDS011;68247;43.514;1.502;2024-03-06T02:37:55;6.32;;;1.65;;
78871;SDS011;68247;43.514;1.502;2024-03-06T02:40:22;4.93;;;1.77;;
78871;SDS011;68247;43.514;1.502;2024-03-06T02:42:47;5.47;;;2.40;;
78871;SDS011;68247;43.514;1.502;2024-03-06T02:45:13;5.60;;;2.33;;
78871;SDS011;68247;43.514;1.502;2024-03-06T02:47:38;3.33;;;1.67;;
78871;SDS011;68247;43.514;1.502;2024-03-06T02:50:04;4.55;;;1.73;;
78871;SDS011;68247;43.514;1.502;2024-03-06T02:52:30;5.50;;;2.05;;
78871;SDS011;68247;43.514;1.502;2024-03-06T02:54:56;4.43;;;1.80;;
78871;SDS011;68247;43.514;1.502;2024-03-06T02:57:21;3.43;;;1.60;;
78871;SDS011;68247;43.514;1.502;2024-03-06T02:59:47;5.22;;;1.67;;
78871;SDS011;68247;43.514;1.502;2024-03-06T03:02:12;3.60;;;1.67;;
78871;SDS011;68247;43.514;1.502;2024-03-06T03:04:38;3.80;;;1.73;;
78871;SDS011;68247;43.514;1.502;2024-03-06T03:07:03;4.30;;;1.40;;
78871;SDS011;68247;43.514;1.502;2024-03-06T03:09:30;4.68;;;1.80;;
78871;SDS011;68247;43.514;1.502;2024-03-06T03:11:55;3.70;;;1.70;;
78871;SDS011;68247;43.514;1.502;2024-03-06T03:14:22;4.88;;;1.80;;
78871;SDS011;68247;43.514;1.502;2024-03-06T03:16:47;3.97;;;2.07;;
78871;SDS011;68247;43.514;1.502;2024-03-06T03:19:13;6.78;;;2.10;;
78871;SDS011;68247;43.514;1.502;2024-03-06T03:21:42;5.80;;;1.90;;
78871;SDS011;68247;43.514;1.502;2024-03-06T03:24:09;4.72;;;2.08;;
78871;SDS011;68247;43.514;1.502;2024-03-06T03:26:35;4.03;;;1.73;;
78871;SDS011;68247;43.514;1.502;2024-03-06T03:29:02;3.40;;;1.60;;
78871;SDS011;68247;43.514;1.502;2024-03-06T03:31:27;4.45;;;1.88;;
78871;SDS011;68247;43.514;1.502;2024-03-06T03:33:53;5.53;;;1.70;;
78871;SDS011;68247;43.514;1.502;2024-03-06T03:36:18;3.70;;;1.42;;
78871;SDS011;68247;43.514;1.502;2024-03-06T03:38:44;5.13;;;1.70;;
78871;SDS011;68247;43.514;1.502;2024-03-06T03:41:10;3.60;;;1.80;;
78871;SDS011;68247;43.514;1.502;2024-03-06T03:43:38;3.35;;;1.38;;
78871;SDS011;68247;43.514;1.502;2024-03-06T03:46:04;4.63;;;2.20;;
78871;SDS011;68247;43.514;1.502;2024-03-06T03:48:30;5.43;;;2.00;;
78871;SDS011;68247;43.514;1.502;2024-03-06T03:50:56;4.25;;;1.90;;
78871;SDS011;68247;43.514;1.502;2024-03-06T03:53:21;4.77;;;1.40;;
78871;SDS011;68247;43.514;1.502;2024-03-06T03:55:47;3.57;;;1.67;;
78871;SDS011;68247;43.514;1.502;2024-03-06T03:58:12;5.93;;;1.70;;
78871;SDS011;68247;43.514;1.502;2024-03-06T04:00:38;4.10;;;1.60;;
78871;SDS011;68247;43.514;1.502;2024-03-06T04:03:03;5.90;;;1.80;;
78871;SDS011;68247;43.514;1.502;2024-03-06T04:05:29;3.22;;;1.40;;
78871;SDS011;68247;43.514;1.502;2024-03-06T04:07:54;3.50;;;1.30;;
78871;SDS011;68247;43.514;1.502;2024-03-06T04:10:20;4.30;;;1.30;;
78871;SDS011;68247;43.514;1.502;2024-03-06T04:12:46;6.83;;;1.40;;
78871;SDS011;68247;43.514;1.502;2024-03-06T04:15:11;2.80;;;1.40;;
78871;SDS011;68247;43.514;1.502;2024-03-06T04:17:36;5.70;;;1.47;;
78871;SDS011;68247;43.514;1.502;2024-03-06T04:20:02;4.00;;;1.73;;
78871;SDS011;68247;43.514;1.502;2024-03-06T04:22:29;4.95;;;1.60;;
78871;SDS011;68247;43.514;1.502;2024-03-06T04:24:54;5.13;;;1.77;;
78871;SDS011;68247;43.514;1.502;2024-03-06T04:27:21;4.82;;;1.92;;
78871;SDS011;68247;43.514;1.502;2024-03-06T04:29:46;4.18;;;1.90;;
78871;SDS011;68247;43.514;1.502;2024-03-06T04:32:12;4.07;;;1.80;;
78871;SDS011;68247;43.514;1.502;2024-03-06T04:34:37;3.70;;;1.60;;
78871;SDS011;68247;43.514;1.502;2024-03-06T04:37:02;15.93;;;1.90;;
78871;SDS011;68247;43.514;1.502;2024-03-06T04:39:28;4.97;;;1.60;;
78871;SDS011;68247;43.514;1.502;2024-03-06T04:41:53;3.53;;;1.45;;
78871;SDS011;68247;43.514;1.502;2024-03-06T04:44:19;3.43;;;1.60;;
78871;SDS011;68247;43.514;1.502;2024-03-06T04:46:44;3.15;;;1.63;;
78871;SDS011;68247;43.514;1.502;2024-03-06T04:49:10;5.18;;;1.33;;
78871;SDS011;68247;43.514;1.502;2024-03-06T04:51:35;4.83;;;1.60;;
78871;SDS011;68247;43.514;1.502;2024-03-06T04:54:01;4.03;;;1.50;;
78871;SDS011;68247;43.514;1.502;2024-03-06T04:56:26;4.33;;;1.30;;
78871;SDS011;68247;43.514;1.502;2024-03-06T04:58:51;4.47;;;1.53;;
78871;SDS011;68247;43.514;1.502;2024-03-06T05:01:17;3.30;;;1.30;;
78871;SDS011;68247;43.514;1.502;2024-03-06T05:03:43;4.73;;;1.20;;
78871;SDS011;68247;43.514;1.502;2024-03-06T05:06:08;8.02;;;1.55;;
78871;SDS011;68247;43.514;1.502;2024-03-06T05:08:33;4.10;;;1.70;;
78871;SDS011;68247;43.514;1.502;2024-03-06T05:11:00;4.33;;;1.50;;
78871;SDS011;68247;43.514;1.502;2024-03-06T05:13:26;7.28;;;1.80;;
78871;SDS011;68247;43.514;1.502;2024-03-06T05:15:52;7.60;;;1.50;;
78871;SDS011;68247;43.514;1.502;2024-03-06T05:18:19;9.25;;;1.85;;
78871;SDS011;68247;43.514;1.502;2024-03-06T05:20:44;6.97;;;1.63;;
78871;SDS011;68247;43.514;1.502;2024-03-06T05:23:10;6.87;;;1.60;;
78871;SDS011;68247;43.514;1.502;2024-03-06T05:25:36;5.72;;;2.30;;
78871;SDS011;68247;43.514;1.502;2024-03-06T05:28:01;9.77;;;2.03;;
78871;SDS011;68247;43.514;1.502;2024-03-06T05:30:29;7.57;;;2.13;;
78871;SDS011;68247;43.514;1.502;2024-03-06T05:32:55;4.27;;;1.70;;
78871;SDS011;68247;43.514;1.502;2024-03-06T05:35:21;5.93;;;1.70;;
78871;SDS011;68247;43.514;1.502;2024-03-06T05:37:46;4.93;;;1.90;;
78871;SDS011;68247;43.514;1.502;2024-03-06T05:40:12;5.63;;;2.23;;
78871;SDS011;68247;43.514;1.502;2024-03-06T05:42:37;8.07;;;2.47;;
78871;SDS011;68247;43.514;1.502;2024-03-06T05:45:03;6.13;;;2.30;;
78871;SDS011;68247;43.514;1.502;2024-03-06T05:47:35;8.77;;;2.33;;
78871;SDS011;68247;43.514;1.502;2024-03-06T05:50:01;6.88;;;2.30;;
78871;SDS011;68247;43.514;1.502;2024-03-06T05:52:30;7.10;;;2.40;;
78871;SDS011;68247;43.514;1.502;2024-03-06T05:54:56;7.28;;;3.25;;
78871;SDS011;68247;43.514;1.502;2024-03-06T05:57:21;6.30;;;2.40;;
78871;SDS011;68247;43.514;1.502;2024-03-06T05:59:47;7.13;;;2.67;;
78871;SDS011;68247;43.514;1.502;2024-03-06T06:02:12;4.90;;;2.20;;
78871;SDS011;68247;43.514;1.502;2024-03-06T06:04:37;6.77;;;2.53;;
78871;SDS011;68247;43.514;1.502;2024-03-06T06:07:03;7.93;;;2.60;;
78871;SDS011;68247;43.514;1.502;2024-03-06T06:09:28;6.07;;;2.53;;
78871;SDS011;68247;43.514;1.502;2024-03-06T06:11:55;6.43;;;2.43;;
78871;SDS011;68247;43.514;1.502;2024-03-06T06:14:20;9.38;;;2.65;;
78871;SDS011;68247;43.514;1.502;2024-03-06T06:16:47;9.07;;;2.70;;
78871;SDS011;68247;43.514;1.502;2024-03-06T06:19:12;5.57;;;2.80;;
78871;SDS011;68247;43.514;1.502;2024-03-06T06:21:37;5.33;;;2.30;;
78871;SDS011;68247;43.514;1.502;2024-03-06T06:24:03;5.77;;;2.27;;
78871;SDS011;68247;43.514;1.502;2024-03-06T06:26:29;8.13;;;2.50;;
78871;SDS011;68247;43.514;1.502;2024-03-06T06:28:56;5.97;;;2.78;;
78871;SDS011;68247;43.514;1.502;2024-03-06T06:31:22;10.35;;;2.55;;
78871;SDS011;68247;43.514;1.502;2024-03-06T06:33:48;8.47;;;2.80;;
78871;SDS011;68247;43.514;1.502;2024-03-06T06:36:14;10.15;;;3.20;;
78871;SDS011;68247;43.514;1.502;2024-03-06T06:38:40;9.67;;;3.30;;
78871;SDS011;68247;43.514;1.502;2024-03-06T06:41:05;8.83;;;3.00;;
78871;SDS011;68247;43.514;1.502;2024-03-06T06:43:30;10.77;;;3.47;;
78871;SDS011;68247;43.514;1.502;2024-03-06T06:45:56;9.37;;;3.60;;
78871;SDS011;68247;43.514;1.502;2024-03-06T06:48:21;9.43;;;3.60;;
78871;SDS011;68247;43.514;1.502;2024-03-06T06:50:47;10.18;;;4.35;;
78871;SDS011;68247;43.514;1.502;2024-03-06T06:53:13;9.90;;;4.30;;
78871;SDS011;68247;43.514;1.502;2024-03-06T06:55:39;11.07;;;4.97;;
78871;SDS011;68247;43.514;1.502;2024-03-06T06:58:04;9.57;;;5.40;;
78871;SDS011;68247;43.514;1.502;2024-03-06T07:00:29;12.83;;;4.47;;
78871;SDS011;68247;43.514;1.502;2024-03-06T07:02:55;10.57;;;4.65;;
78871;SDS011;68247;43.514;1.502;2024-03-06T07:05:23;13.10;;;5.30;;
78871;SDS011;68247;43.514;1.502;2024-03-06T07:07:49;14.45;;;5.63;;
78871;SDS011;68247;43.514;1.502;2024-03-06T07:10:14;12.93;;;6.00;;
78871;SDS011;68247;43.514;1.502;2024-03-06T07:12:40;15.10;;;6.10;;
78871;SDS011;68247;43.514;1.502;2024-03-06T07:15:05;12.10;;;5.18;;
78871;SDS011;68247;43.514;1.502;2024-03-06T07:17:31;11.20;;;5.32;;
78871;SDS011;68247;43.514;1.502;2024-03-06T07:19:57;13.07;;;5.80;;
78871;SDS011;68247;43.514;1.502;2024-03-06T07:22:22;10.87;;;5.50;;
78871;SDS011;68247;43.514;1.502;2024-03-06T07:24:48;14.13;;;6.03;;
78871;SDS011;68247;43.514;1.502;2024-03-06T07:27:13;16.40;;;6.07;;
78871;SDS011;68247;43.514;1.502;2024-03-06T07:29:39;11.33;;;4.90;;
78871;SDS011;68247;43.514;1.502;2024-03-06T07:32:05;12.05;;;5.00;;
78871;SDS011;68247;43.514;1.502;2024-03-06T07:34:30;12.80;;;4.40;;
78871;SDS011;68247;43.514;1.502;2024-03-06T07:36:56;14.35;;;5.50;;
78871;SDS011;68247;43.514;1.502;2024-03-06T07:39:24;9.53;;;4.80;;
78871;SDS011;68247;43.514;1.502;2024-03-06T07:41:50;14.30;;;4.60;;
78871;SDS011;68247;43.514;1.502;2024-03-06T07:44:15;11.60;;;3.37;;
78871;SDS011;68247;43.514;1.502;2024-03-06T07:46:41;13.45;;;3.22;;
78871;SDS011;68247;43.514;1.502;2024-03-06T07:49:06;10.37;;;3.70;;
78871;SDS011;68247;43.514;1.502;2024-03-06T07:51:32;9.70;;;3.20;;
78871;SDS011;68247;43.514;1.502;2024-03-06T07:53:58;10.20;;;3.17;;
78871;SDS011;68247;43.514;1.502;2024-03-06T07:56:24;8.67;;;3.13;;
78871;SDS011;68247;43.514;1.502;2024-03-06T07:58:53;10.38;;;2.92;;
78871;SDS011;68247;43.514;1.502;2024-03-06T08:01:18;11.57;;;3.57;;
78871;SDS011;68247;43.514;1.502;2024-03-06T08:03:44;8.25;;;2.67;;
78871;SDS011;68247;43.514;1.502;2024-03-06T08:06:10;9.83;;;2.90;;
78871;SDS011;68247;43.514;1.502;2024-03-06T08:08:36;11.15;;;4.00;;
78871;SDS011;68247;43.514;1.502;2024-03-06T08:11:02;10.03;;;3.27;;
78871;SDS011;68247;43.514;1.502;2024-03-06T08:13:28;13.68;;;3.90;;
78871;SDS011;68247;43.514;1.502;2024-03-06T08:15:54;10.60;;;3.10;;
78871;SDS011;68247;43.514;1.502;2024-03-06T08:18:19;10.93;;;3.03;;
78871;SDS011;68247;43.514;1.502;2024-03-06T08:20:45;9.38;;;3.30;;
78871;SDS011;68247;43.514;1.502;2024-03-06T08:23:10;9.00;;;2.83;;
78871;SDS011;68247;43.514;1.502;2024-03-06T08:25:36;9.07;;;2.93;;
78871;SDS011;68247;43.514;1.502;2024-03-06T08:28:01;8.20;;;2.70;;
78871;SDS011;68247;43.514;1.502;2024-03-06T08:30:30;7.68;;;2.80;;
78871;SDS011;68247;43.514;1.502;2024-03-06T08:32:56;7.70;;;2.50;;
78871;SDS011;68247;43.514;1.502;2024-03-06T08:35:22;9.80;;;3.10;;
78871;SDS011;68247;43.514;1.502;2024-03-06T08:37:49;8.57;;;3.50;;
78871;SDS011;68247;43.514;1.502;2024-03-06T08:40:15;10.85;;;3.13;;
78871;SDS011;68247;43.514;1.502;2024-03-06T08:42:43;10.00;;;3.10;;
78871;SDS011;68247;43.514;1.502;2024-03-06T08:45:09;17.67;;;7.28;;
78871;SDS011;68247;43.514;1.502;2024-03-06T08:47:34;43.75;;;20.90;;
78871;SDS011;68247;43.514;1.502;2024-03-06T08:50:01;48.20;;;24.65;;
78871;SDS011;68247;43.514;1.502;2024-03-06T08:52:27;14.23;;;6.13;;
78871;SDS011;68247;43.514;1.502;2024-03-06T08:54:52;8.88;;;2.80;;
78871;SDS011;68247;43.514;1.502;2024-03-06T08:57:18;11.40;;;3.47;;
78871;SDS011;68247;43.514;1.502;2024-03-06T08:59:46;6.75;;;2.65;;
78871;SDS011;68247;43.514;1.502;2024-03-06T09:02:15;9.87;;;2.50;;
78871;SDS011;68247;43.514;1.502;2024-03-06T09:04:42;6.22;;;2.13;;
78871;SDS011;68247;43.514;1.502;2024-03-06T09:07:08;7.90;;;2.80;;
78871;SDS011;68247;43.514;1.502;2024-03-06T09:09:34;8.90;;;2.80;;
78871;SDS011;68247;43.514;1.502;2024-03-06T09:12:00;7.30;;;2.60;;
78871;SDS011;68247;43.514;1.502;2024-03-06T09:14:26;8.77;;;2.53;;
78871;SDS011;68247;43.514;1.502;2024-03-06T09:16:51;6.30;;;2.33;;
78871;SDS011;68247;43.514;1.502;2024-03-06T09:19:17;7.73;;;2.60;;
78871;SDS011;68247;43.514;1.502;2024-03-06T09:21:42;6.97;;;2.60;;
78871;SDS011;68247;43.514;1.502;2024-03-06T09:24:08;7.20;;;2.50;;
78871;SDS011;68247;43.514;1.502;2024-03-06T09:26:33;9.93;;;2.53;;
78871;SDS011;68247;43.514;1.502;2024-03-06T09:28:59;10.68;;;2.38;;
78871;SDS011;68247;43.514;1.502;2024-03-06T09:31:26;5.57;;;2.10;;
78871;SDS011;68247;43.514;1.502;2024-03-06T09:33:52;7.43;;;1.92;;
78871;SDS011;68247;43.514;1.502;2024-03-06T09:36:18;6.25;;;2.00;;
78871;SDS011;68247;43.514;1.502;2024-03-06T09:38:43;6.80;;;2.00;;
78871;SDS011;68247;43.514;1.502;2024-03-06T09:41:09;7.40;;;2.23;;
78871;SDS011;68247;43.514;1.502;2024-03-06T09:43:35;6.97;;;2.33;;
78871;SDS011;68247;43.514;1.502;2024-03-06T09:46:00;8.60;;;2.40;;
78871;SDS011;68247;43.514;1.502;2024-03-06T09:48:29;5.63;;;2.47;;
78871;SDS011;68247;43.514;1.502;2024-03-06T09:50:54;9.73;;;2.87;;
78871;SDS011;68247;43.514;1.502;2024-03-06T09:53:25;8.25;;;2.35;;
78871;SDS011;68247;43.514;1.502;2024-03-06T09:55:50;7.57;;;2.60;;
78871;SDS011;68247;43.514;1.502;2024-03-06T09:58:15;6.43;;;2.43;;
78871;SDS011;68247;43.514;1.502;2024-03-06T10:00:43;9.20;;;2.72;;
78871;SDS011;68247;43.514;1.502;2024-03-06T10:03:09;9.18;;;3.05;;
78871;SDS011;68247;43.514;1.502;2024-03-06T10:05:36;5.07;;;1.95;;
78871;SDS011;68247;43.514;1.502;2024-03-06T10:08:02;11.17;;;2.77;;
78871;SDS011;68247;43.514;1.502;2024-03-06T10:10:29;9.45;;;2.83;;
78871;SDS011;68247;43.514;1.502;2024-03-06T10:12:55;10.50;;;2.77;;
78871;SDS011;68247;43.514;1.502;2024-03-06T10:15:22;5.95;;;2.33;;
78871;SDS011;68247;43.514;1.502;2024-03-06T10:17:47;8.00;;;2.67;;
78871;SDS011;68247;43.514;1.502;2024-03-06T10:22:55;8.45;;;3.15;;
78871;SDS011;68247;43.514;1.502;2024-03-06T10:25:21;23.02;;;12.85;;
78871;SDS011;68247;43.514;1.502;2024-03-06T10:30:28;18.17;;;8.43;;
78871;SDS011;68247;43.514;1.502;2024-03-06T10:32:54;11.83;;;3.20;;
78871;SDS011;68247;43.514;1.502;2024-03-06T10:35:19;7.35;;;3.13;;
78871;SDS011;68247;43.514;1.502;2024-03-06T10:37:46;12.13;;;3.50;;
78871;SDS011;68247;43.514;1.502;2024-03-06T10:40:12;9.63;;;3.10;;
78871;SDS011;68247;43.514;1.502;2024-03-06T10:42:39;7.97;;;2.70;;
78871;SDS011;68247;43.514;1.502;2024-03-06T10:45:07;13.32;;;3.03;;
78871;SDS011;68247;43.514;1.502;2024-03-06T10:47:33;9.10;;;3.13;;
78871;SDS011;68247;43.514;1.502;2024-03-06T10:50:02;11.63;;;3.22;;
78871;SDS011;68247;43.514;1.502;2024-03-06T10:52:29;10.30;;;2.90;;
78871;SDS011;68247;43.514;1.502;2024-03-06T10:54:56;9.02;;;2.88;;
78871;SDS011;68247;43.514;1.502;2024-03-06T10:57:24;8.73;;;2.60;;
78871;SDS011;68247;43.514;1.502;2024-03-06T10:59:50;7.03;;;2.28;;
78871;SDS011;68247;43.514;1.502;2024-03-06T11:02:17;10.88;;;2.50;;
78871;SDS011;68247;43.514;1.502;2024-03-06T11:04:43;8.50;;;2.87;;
78871;SDS011;68247;43.514;1.502;2024-03-06T11:07:09;7.25;;;2.60;;
78871;SDS011;68247;43.514;1.502;2024-03-06T11:09:35;9.33;;;2.87;;
78871;SDS011;68247;43.514;1.502;2024-03-06T11:12:03;10.38;;;3.00;;
78871;SDS011;68247;43.514;1.502;2024-03-06T11:14:32;8.85;;;2.42;;
78871;SDS011;68247;43.514;1.502;2024-03-06T11:17:01;9.27;;;2.70;;
78871;SDS011;68247;43.514;1.502;2024-03-06T11:19:32;11.20;;;2.20;;
78871;SDS011;68247;43.514;1.502;2024-03-06T11:21:58;13.00;;;2.92;;
78871;SDS011;68247;43.514;1.502;2024-03-06T11:24:31;17.75;;;6.47;;
78871;SDS011;68247;43.514;1.502;2024-03-06T11:27:00;10.80;;;2.63;;
78871;SDS011;68247;43.514;1.502;2024-03-06T11:29:27;10.33;;;2.40;;
78871;SDS011;68247;43.514;1.502;2024-03-06T11:32:00;7.78;;;2.10;;
78871;SDS011;68247;43.514;1.502;2024-03-06T11:34:27;8.70;;;1.95;;
78871;SDS011;68247;43.514;1.502;2024-03-06T11:36:58;13.07;;;3.78;;
78871;SDS011;68247;43.514;1.502;2024-03-06T11:39:24;12.02;;;3.95;;
78871;SDS011;68247;43.514;1.502;2024-03-06T11:41:50;12.93;;;3.17;;
78871;SDS011;68247;43.514;1.502;2024-03-06T11:44:19;8.93;;;2.63;;
78871;SDS011;68247;43.514;1.502;2024-03-06T11:49:23;8.07;;;2.20;;
78871;SDS011;68247;43.514;1.502;2024-03-06T11:51:50;8.85;;;2.60;;
78871;SDS011;68247;43.514;1.502;2024-03-06T11:54:16;7.97;;;2.50;;
78871;SDS011;68247;43.514;1.502;2024-03-06T11:56:49;7.38;;;2.70;;
78871;SDS011;68247;43.514;1.502;2024-03-06T11:59:23;7.40;;;2.40;;
78871;SDS011;68247;43.514;1.502;2024-03-06T12:01:53;7.47;;;2.90;;
78871;SDS011;68247;43.514;1.502;2024-03-06T12:04:23;7.35;;;2.40;;
78871;SDS011;68247;43.514;1.502;2024-03-06T12:06:49;11.27;;;5.28;;
78871;SDS011;68247;43.514;1.502;2024-03-06T12:09:15;9.13;;;4.20;;
78871;SDS011;68247;43.514;1.502;2024-03-06T12:11:41;30.67;;;20.03;;
78871;SDS011;68247;43.514;1.502;2024-03-06T12:14:17;8.35;;;3.08;;
78871;SDS011;68247;43.514;1.502;2024-03-06T12:16:43;8.10;;;2.65;;
78871;SDS011;68247;43.514;1.502;2024-03-06T12:19:09;7.63;;;2.90;;
78871;SDS011;68247;43.514;1.502;2024-03-06T12:21:35;7.57;;;2.50;;
78871;SDS011;68247;43.514;1.502;2024-03-06T12:24:01;6.07;;;2.38;;
78871;SDS011;68247;43.514;1.502;2024-03-06T12:26:30;8.48;;;2.28;;
78871;SDS011;68247;43.514;1.502;2024-03-06T12:29:08;7.20;;;2.10;;
78871;SDS011;68247;43.514;1.502;2024-03-06T12:31:36;7.60;;;2.72;;
78871;SDS011;68247;43.514;1.502;2024-03-06T12:34:07;7.03;;;2.67;;
78871;SDS011;68247;43.514;1.502;2024-03-06T12:36:32;7.03;;;2.30;;
78871;SDS011;68247;43.514;1.502;2024-03-06T12:38:58;6.97;;;2.33;;
78871;SDS011;68247;43.514;1.502;2024-03-06T12:41:24;8.05;;;2.42;;
78871;SDS011;68247;43.514;1.502;2024-03-06T12:43:51;8.95;;;2.75;;
78871;SDS011;68247;43.514;1.502;2024-03-06T12:46:17;7.53;;;2.60;;
78871;SDS011;68247;43.514;1.502;2024-03-06T12:48:42;7.57;;;2.50;;
78871;SDS011;68247;43.514;1.502;2024-03-06T12:51:08;9.00;;;2.90;;
78871;SDS011;68247;43.514;1.502;2024-03-06T12:53:33;7.87;;;2.83;;
78871;SDS011;68247;43.514;1.502;2024-03-06T12:56:00;9.65;;;2.70;;
78871;SDS011;68247;43.514;1.502;2024-03-06T12:58:25;7.67;;;2.50;;
78871;SDS011;68247;43.514;1.502;2024-03-06T13:00:51;7.83;;;3.10;;
78871;SDS011;68247;43.514;1.502;2024-03-06T13:03:17;8.88;;;2.63;;
78871;SDS011;68247;43.514;1.502;2024-03-06T13:05:43;8.10;;;2.70;;
78871;SDS011;68247;43.514;1.502;2024-03-06T13:08:08;6.03;;;2.50;;
78871;SDS011;68247;43.514;1.502;2024-03-06T13:10:34;7.70;;;2.70;;
78871;SDS011;68247;43.514;1.502;2024-03-06T13:13:00;7.32;;;2.60;;
78871;SDS011;68247;43.514;1.502;2024-03-06T13:15:26;8.30;;;2.73;;
78871;SDS011;68247;43.514;1.502;2024-03-06T13:17:51;9.90;;;2.83;;
78871;SDS011;68247;43.514;1.502;2024-03-06T13:20:17;8.52;;;2.72;;
78871;SDS011;68247;43.514;1.502;2024-03-06T13:22:42;9.27;;;2.77;;
78871;SDS011;68247;43.514;1.502;2024-03-06T13:25:09;10.10;;;3.25;;
78871;SDS011;68247;43.514;1.502;2024-03-06T13:27:35;7.77;;;2.33;;
78871;SDS011;68247;43.514;1.502;2024-03-06T13:30:00;7.65;;;2.53;;
78871;SDS011;68247;43.514;1.502;2024-03-06T13:32:26;8.90;;;2.97;;
78871;SDS011;68247;43.514;1.502;2024-03-06T13:34:51;9.27;;;3.20;;
78871;SDS011;68247;43.514;1.502;2024-03-06T13:37:17;12.48;;;2.70;;
78871;SDS011;68247;43.514;1.502;2024-03-06T13:39:43;7.20;;;3.27;;
78871;SDS011;68247;43.514;1.502;2024-03-06T13:42:08;7.78;;;3.00;;
78871;SDS011;68247;43.514;1.502;2024-03-06T13:44:36;6.90;;;2.73;;
78871;SDS011;68247;43.514;1.502;2024-03-06T13:47:02;7.05;;;2.92;;
78871;SDS011;68247;43.514;1.502;2024-03-06T13:49:41;7.47;;;2.80;;
78871;SDS011;68247;43.514;1.502;2024-03-06T13:52:07;8.10;;;2.60;;
78871;SDS011;68247;43.514;1.502;2024-03-06T13:54:35;8.23;;;2.97;;
78871;SDS011;68247;43.514;1.502;2024-03-06T13:57:07;6.75;;;2.90;;
78871;SDS011;68247;43.514;1.502;2024-03-06T13:59:33;7.15;;;2.80;;
78871;SDS011;68247;43.514;1.502;2024-03-06T14:01:59;7.60;;;3.13;;
78871;SDS011;68247;43.514;1.502;2024-03-06T14:04:25;6.47;;;2.60;;
78871;SDS011;68247;43.514;1.502;2024-03-06T14:06:51;7.45;;;2.92;;
78871;SDS011;68247;43.514;1.502;2024-03-06T14:09:17;9.20;;;2.43;;
78871;SDS011;68247;43.514;1.502;2024-03-06T14:11:42;8.30;;;2.40;;
78871;SDS011;68247;43.514;1.502;2024-03-06T14:14:08;7.13;;;2.38;;
78871;SDS011;68247;43.514;1.502;2024-03-06T14:16:37;6.73;;;2.27;;
78871;SDS011;68247;43.514;1.502;2024-03-06T14:19:05;6.78;;;2.58;;
78871;SDS011;68247;43.514;1.502;2024-03-06T14:21:30;8.77;;;2.20;;
78871;SDS011;68247;43.514;1.502;2024-03-06T14:23:57;8.07;;;2.30;;
78871;SDS011;68247;43.514;1.502;2024-03-06T14:26:23;8.85;;;2.40;;
78871;SDS011;68247;43.514;1.502;2024-03-06T14:28:48;11.00;;;2.90;;
78871;SDS011;68247;43.514;1.502;2024-03-06T14:31:14;9.43;;;2.63;;
78871;SDS011;68247;43.514;1.502;2024-03-06T14:33:40;6.88;;;2.25;;
78871;SDS011;68247;43.514;1.502;2024-03-06T14:36:06;10.52;;;2.80;;
78871;SDS011;68247;43.514;1.502;2024-03-06T14:38:31;5.85;;;2.60;;
78871;SDS011;68247;43.514;1.502;2024-03-06T14:40:58;6.70;;;2.35;;
78871;SDS011;68247;43.514;1.502;2024-03-06T14:43:24;9.07;;;2.80;;
78871;SDS011;68247;43.514;1.502;2024-03-06T14:45:50;8.07;;;3.00;;
78871;SDS011;68247;43.514;1.502;2024-03-06T14:48:15;7.15;;;3.63;;